Time;durP1;ratioP1;P1;durP2;ratioP2;P2;SDS_P1;SDS_P2;PMS_P1;PMS_P2;Temp;Humidity;BMP_temperature;BMP_pressure;BME280_temperature;BME280_humidity;BME280_pressure;Samples;Min_cycle;Max_cycle;Signal;HPM_P1;HPM_P2
2023/06/27 00:01:11;;;;;;;8.40;2.13;;;22.30;56.40;;;;;;5061822;28;20465;-78
2023/06/27 00:03:39;;;;;;;5.13;2.00;;;22.30;56.40;;;;;;5079780;28;20578;-79
2023/06/27 00:06:08;;;;;;;9.60;2.73;;;22.20;56.50;;;;;;5083615;28;20538;-78
2023/06/27 00:08:36;;;;;;;7.77;2.43;;;22.20;56.60;;;;;;5067733;28;20459;-78
2023/06/27 00:11:04;;;;;;;8.53;2.60;;;22.20;56.70;;;;;;5069872;28;20539;-79
2023/06/27 00:13:32;;;;;;;5.23;1.93;;;22.20;56.70;;;;;;5082644;28;20455;-78
2023/06/27 00:16:02;;;;;;;6.23;2.00;;;22.10;56.80;;;;;;5083621;28;20918;-78
2023/06/27 00:18:34;;;;;;;6.40;2.10;;;22.10;56.80;;;;;;5084688;28;21126;-79
2023/06/27 00:21:02;;;;;;;6.70;2.00;;;22.10;56.90;;;;;;5082630;28;20527;-78
2023/06/27 00:23:34;;;;;;;7.77;3.13;;;22.10;56.90;;;;;;5083232;28;20453;-78
2023/06/27 00:26:03;;;;;;;5.27;1.97;;;22.00;57.00;;;;;;5074162;28;20475;-79
2023/06/27 00:28:31;;;;;;;9.53;2.80;;;22.00;57.00;;;;;;5077381;28;20462;-78
2023/06/27 00:31:00;;;;;;;6.50;2.10;;;22.00;57.10;;;;;;5083390;28;20508;-79
2023/06/27 00:33:28;;;;;;;7.17;2.13;;;21.90;57.20;;;;;;5083101;28;20483;-78
2023/06/27 00:35:58;;;;;;;7.40;2.23;;;21.90;57.30;;;;;;5088613;28;20449;-78
2023/06/27 00:38:26;;;;;;;7.60;2.20;;;21.90;57.30;;;;;;5071623;28;20460;-77
2023/06/27 00:40:57;;;;;;;7.63;2.10;;;21.90;57.40;;;;;;5078361;28;20461;-79
2023/06/27 00:43:28;;;;;;;7.47;2.13;;;21.80;57.50;;;;;;5072367;28;20514;-78
2023/06/27 00:45:56;;;;;;;7.63;2.00;;;21.80;57.60;;;;;;5083632;28;20506;-79
2023/06/27 00:48:26;;;;;;;6.43;2.40;;;21.80;57.70;;;;;;5080533;28;20552;-79
2023/06/27 00:50:58;;;;;;;7.40;2.23;;;21.80;57.80;;;;;;5072817;28;20453;-79
2023/06/27 00:53:26;;;;;;;6.97;2.77;;;21.70;57.80;;;;;;5085360;28;20477;-80
2023/06/27 00:55:54;;;;;;;5.63;1.93;;;21.70;58.00;;;;;;5087491;28;20464;-78
2023/06/27 00:58:24;;;;;;;7.13;2.40;;;21.70;58.00;;;;;;5085549;28;20469;-79
2023/06/27 01:00:53;;;;;;;5.33;2.13;;;21.60;58.10;;;;;;5074391;28;20484;-78
2023/06/27 01:03:21;;;;;;;5.60;1.90;;;21.60;58.20;;;;;;5086102;28;20515;-79
2023/06/27 01:05:53;;;;;;;8.13;2.00;;;21.60;58.30;;;;;;5082018;28;20527;-79
2023/06/27 01:08:26;;;;;;;5.90;2.10;;;21.50;58.30;;;;;;5064608;28;20462;-80
2023/06/27 01:11:03;;;;;;;7.03;1.77;;;21.50;58.40;;;;;;5084892;28;20475;-79
2023/06/27 01:13:38;;;;;;;6.57;2.47;;;21.50;58.50;;;;;;5067044;28;20468;-81
2023/06/27 01:16:06;;;;;;;5.70;2.30;;;21.40;58.60;;;;;;5086756;28;20548;-79
2023/06/27 01:18:36;;;;;;;7.60;1.93;;;21.40;58.60;;;;;;5088207;28;20536;-78
2023/06/27 01:21:08;;;;;;;5.90;2.00;;;21.40;58.70;;;;;;5083347;28;20552;-78
2023/06/27 01:23:49;;;;;;;5.47;1.70;;;21.30;58.70;;;;;;5085311;28;20459;-78
2023/06/27 01:26:18;;;;;;;6.93;2.30;;;21.30;58.80;;;;;;5083522;28;20517;-79
2023/06/27 01:28:46;;;;;;;6.00;2.27;;;21.30;58.90;;;;;;5080623;28;20519;-79
2023/06/27 01:31:23;;;;;;;6.83;2.53;;;21.30;58.90;;;;;;5065853;28;20567;-79
2023/06/27 01:33:58;;;;;;;6.40;2.20;;;21.20;59.00;;;;;;5067893;28;20484;-79
2023/06/27 01:36:32;;;;;;;6.70;2.10;;;21.20;59.10;;;;;;5082714;28;20831;-79
2023/06/27 01:39:08;;;;;;;8.47;2.20;;;21.20;59.10;;;;;;5080241;28;20456;-78
2023/06/27 01:41:41;;;;;;;7.83;2.23;;;21.20;59.20;;;;;;5066494;28;20472;-78
2023/06/27 01:44:11;;;;;;;11.40;3.17;;;21.10;59.30;;;;;;5083110;28;20848;-79
2023/06/27 01:46:40;;;;;;;5.30;2.07;;;21.10;59.40;;;;;;5066447;28;20500;-79
2023/06/27 01:49:10;;;;;;;8.30;2.10;;;21.00;59.40;;;;;;5068844;28;20477;-78
2023/06/27 01:51:40;;;;;;;5.70;2.20;;;21.00;59.50;;;;;;5072657;28;21209;-78
2023/06/27 01:54:09;;;;;;;7.30;2.60;;;20.90;59.60;;;;;;5063417;28;20488;-78
2023/06/27 01:56:37;;;;;;;6.40;2.17;;;20.90;59.70;;;;;;5086349;28;20455;-78
2023/06/27 01:59:05;;;;;;;10.10;2.70;;;20.80;59.80;;;;;;5060230;28;20555;-78
2023/06/27 02:01:33;;;;;;;5.33;2.00;;;20.80;59.80;;;;;;5064525;28;20570;-78
2023/06/27 02:04:03;;;;;;;5.30;1.83;;;20.70;59.90;;;;;;5061612;28;20468;-79
2023/06/27 02:06:31;;;;;;;6.47;2.27;;;20.70;60.00;;;;;;5072475;28;20979;-78
2023/06/27 02:08:59;;;;;;;6.97;2.67;;;20.60;60.10;;;;;;5082889;28;20548;-78
2023/06/27 02:11:28;;;;;;;6.40;2.70;;;20.60;60.10;;;;;;5083140;28;20816;-78
2023/06/27 02:13:58;;;;;;;8.73;2.87;;;20.50;60.20;;;;;;5066646;28;21176;-79
2023/06/27 02:16:26;;;;;;;6.67;2.20;;;20.50;60.30;;;;;;5063536;28;20457;-79
2023/06/27 02:18:54;;;;;;;6.00;2.10;;;20.50;60.40;;;;;;5070531;28;20453;-78
2023/06/27 02:21:22;;;;;;;8.30;3.00;;;20.50;60.50;;;;;;5068153;28;20458;-79
2023/06/27 02:23:50;;;;;;;7.07;2.67;;;20.40;60.50;;;;;;5071718;28;20456;-79
2023/06/27 02:26:18;;;;;;;6.43;2.23;;;20.40;60.60;;;;;;5082139;28;20809;-81
2023/06/27 02:28:47;;;;;;;7.30;2.30;;;20.40;60.70;;;;;;5068841;28;20475;-78
2023/06/27 02:31:15;;;;;;;5.60;2.47;;;20.40;60.70;;;;;;5080876;28;21109;-79
2023/06/27 02:33:43;;;;;;;5.63;2.30;;;20.30;60.70;;;;;;5074225;28;20468;-79
2023/06/27 02:36:11;;;;;;;7.67;2.47;;;20.20;60.80;;;;;;5088852;28;20544;-80
2023/06/27 02:38:39;;;;;;;7.60;3.30;;;20.10;60.90;;;;;;5077204;28;20453;-80
2023/06/27 02:41:07;;;;;;;12.13;2.10;;;20.10;61.00;;;;;;5081610;28;20466;-79
2023/06/27 02:43:35;;;;;;;5.00;1.90;;;20.00;61.10;;;;;;5069396;28;20481;-78
2023/06/27 02:46:04;;;;;;;8.73;2.50;;;20.00;61.30;;;;;;5082803;28;20551;-80
2023/06/27 02:48:33;;;;;;;6.13;2.50;;;20.00;61.30;;;;;;5077171;28;20495;-77
2023/06/27 02:51:23;;;;;;;7.63;2.20;;;19.90;61.50;;;;;;5080247;28;20459;-78
2023/06/27 02:53:51;;;;;;;9.03;2.23;;;19.80;61.70;;;;;;5076971;28;20469;-80
2023/06/27 02:56:19;;;;;;;5.40;2.53;;;19.80;61.70;;;;;;5062373;28;20489;-78
2023/06/27 02:58:48;;;;;;;5.87;2.23;;;19.70;61.80;;;;;;5085621;28;20472;-79
2023/06/27 03:01:18;;;;;;;5.53;2.73;;;19.70;61.90;;;;;;5066423;28;20495;-80
2023/06/27 03:03:47;;;;;;;5.13;2.43;;;19.60;62.00;;;;;;5074287;28;21084;-80
2023/06/27 03:06:15;;;;;;;7.13;2.30;;;19.60;62.00;;;;;;5066403;28;20962;-78
2023/06/27 03:08:44;;;;;;;8.33;3.17;;;19.60;62.10;;;;;;5070087;28;20466;-78
2023/06/27 03:11:13;;;;;;;9.30;2.70;;;19.50;62.10;;;;;;5066334;28;20543;-79
2023/06/27 03:13:41;;;;;;;6.97;2.53;;;19.50;62.20;;;;;;5067161;28;20618;-80
2023/06/27 03:16:09;;;;;;;5.20;2.67;;;19.40;62.30;;;;;;5066560;28;20481;-79
2023/06/27 03:18:40;;;;;;;6.50;2.30;;;19.40;62.50;;;;;;5064829;28;20517;-77
2023/06/27 03:21:10;;;;;;;6.00;2.27;;;19.40;62.50;;;;;;5067087;28;21002;-79
2023/06/27 03:23:38;;;;;;;5.33;2.53;;;19.30;62.60;;;;;;5066335;28;20459;-78
2023/06/27 03:26:06;;;;;;;6.60;2.50;;;19.30;62.70;;;;;;5068003;28;21022;-78
2023/06/27 03:28:34;;;;;;;8.87;2.73;;;19.30;62.80;;;;;;5082626;28;20486;-78
2023/06/27 03:31:02;;;;;;;7.47;2.23;;;19.30;62.90;;;;;;5049470;28;20852;-79
2023/06/27 03:33:30;;;;;;;5.90;2.37;;;19.30;63.00;;;;;;5084433;28;20505;-78
2023/06/27 03:35:59;;;;;;;7.43;2.77;;;19.20;63.20;;;;;;5080477;28;20460;-81
2023/06/27 03:38:27;;;;;;;7.00;2.30;;;19.30;63.30;;;;;;5080858;28;20481;-79
2023/06/27 03:40:57;;;;;;;5.77;2.90;;;19.30;63.40;;;;;;5064561;28;20470;-79
2023/06/27 03:43:25;;;;;;;6.10;2.23;;;19.30;63.40;;;;;;5065839;28;20506;-79
2023/06/27 03:45:53;;;;;;;5.53;2.40;;;19.20;63.50;;;;;;5080971;28;20839;-78
2023/06/27 03:48:21;;;;;;;5.53;2.20;;;19.20;63.60;;;;;;5046517;28;21220;-79
2023/06/27 03:50:49;;;;;;;5.27;2.30;;;19.20;63.70;;;;;;5082869;28;20465;-78
2023/06/27 03:53:19;;;;;;;6.57;2.33;;;19.20;63.70;;;;;;5051239;28;20453;-79
2023/06/27 03:55:47;;;;;;;5.00;2.50;;;19.20;63.80;;;;;;5076080;28;20547;-78
2023/06/27 03:58:15;;;;;;;8.13;2.70;;;19.20;63.80;;;;;;5079361;28;20493;-79
2023/06/27 04:00:44;;;;;;;6.97;2.53;;;19.20;63.90;;;;;;5067969;28;20476;-79
2023/06/27 04:03:12;;;;;;;6.67;2.70;;;19.20;64.00;;;;;;5079220;28;20475;-79
2023/06/27 04:05:40;;;;;;;6.70;2.33;;;19.10;64.10;;;;;;5073066;28;21163;-78
2023/06/27 04:08:15;;;;;;;5.40;2.27;;;19.10;64.20;;;;;;5066163;28;20457;-78
2023/06/27 04:10:45;;;;;;;5.70;2.40;;;19.10;64.40;;;;;;5060041;28;20464;-79
2023/06/27 04:13:12;;;;;;;5.27;2.13;;;19.10;64.50;;;;;;5084020;28;20550;-78
2023/06/27 04:15:42;;;;;;;6.27;3.33;;;19.10;64.60;;;;;;5068736;28;20562;-79
2023/06/27 04:18:13;;;;;;;6.00;2.63;;;19.00;64.60;;;;;;5069740;28;20461;-78
2023/06/27 04:20:41;;;;;;;7.03;2.77;;;19.00;64.70;;;;;;5084471;28;20461;-79
2023/06/27 04:23:09;;;;;;;5.00;2.30;;;19.00;64.80;;;;;;5067822;28;21009;-79
2023/06/27 04:25:37;;;;;;;5.10;2.30;;;19.00;65.00;;;;;;5065715;28;20541;-78
2023/06/27 04:28:07;;;;;;;6.33;2.30;;;19.00;65.20;;;;;;5067148;28;20494;-79
2023/06/27 04:30:35;;;;;;;6.50;2.53;;;19.00;65.20;;;;;;5081634;28;20467;-79
2023/06/27 04:33:03;;;;;;;6.50;2.50;;;19.00;65.30;;;;;;5083047;28;20711;-79
2023/06/27 04:35:31;;;;;;;6.73;2.53;;;19.00;65.40;;;;;;5082171;28;20888;-79
2023/06/27 04:37:59;;;;;;;5.80;2.77;;;19.10;65.60;;;;;;5080345;28;20586;-80
2023/06/27 04:40:27;;;;;;;8.77;2.37;;;19.10;65.60;;;;;;5066199;28;20509;-78
2023/06/27 04:42:55;;;;;;;6.03;2.30;;;19.20;65.60;;;;;;5069513;28;21397;-78
2023/06/27 04:45:39;;;;;;;5.40;2.10;;;19.20;65.70;;;;;;5084069;28;20484;-79
2023/06/27 04:48:08;;;;;;;5.40;2.43;;;19.30;65.70;;;;;;5081215;28;20834;-79
2023/06/27 04:50:36;;;;;;;6.53;2.67;;;19.30;65.70;;;;;;5077523;28;20547;-79
2023/06/27 04:53:04;;;;;;;6.60;2.60;;;19.30;65.90;;;;;;5081409;28;20551;-78
2023/06/27 04:55:33;;;;;;;6.60;2.57;;;19.30;66.00;;;;;;5077418;28;20861;-78
2023/06/27 04:58:01;;;;;;;5.93;2.30;;;19.30;66.20;;;;;;5086824;28;20547;-79
2023/06/27 05:00:29;;;;;;;6.70;2.90;;;19.30;66.20;;;;;;5085822;28;20508;-78
2023/06/27 05:02:58;;;;;;;7.17;2.80;;;19.40;66.20;;;;;;5064150;28;20453;-79
2023/06/27 05:05:32;;;;;;;7.87;2.47;;;19.50;66.30;;;;;;5088340;28;20466;-78
2023/06/27 05:08:01;;;;;;;9.33;2.77;;;19.50;66.30;;;;;;5085128;28;20456;-78
2023/06/27 05:10:29;;;;;;;7.03;3.10;;;19.60;66.50;;;;;;5085087;28;20476;-79
2023/06/27 05:13:00;;;;;;;6.40;2.53;;;19.70;66.50;;;;;;5088748;28;20452;-79
2023/06/27 05:15:29;;;;;;;6.20;2.60;;;19.70;66.40;;;;;;5089064;28;20970;-78
2023/06/27 05:18:26;;;;;;;6.67;2.50;;;19.70;66.30;;;;;;5089590;28;20551;-77
2023/06/27 05:20:54;;;;;;;7.37;3.00;;;19.80;66.50;;;;;;5082082;28;20540;-78
2023/06/27 05:23:23;;;;;;;6.47;2.33;;;19.80;66.60;;;;;;5082287;28;20467;-81
2023/06/27 05:25:51;;;;;;;10.13;2.70;;;19.90;66.70;;;;;;5086996;28;20445;-79
2023/06/27 05:28:19;;;;;;;6.80;2.80;;;19.90;67.00;;;;;;5086978;28;20459;-78
2023/06/27 05:30:48;;;;;;;5.40;2.40;;;20.00;67.20;;;;;;5083466;28;20471;-80
2023/06/27 05:33:16;;;;;;;5.97;2.27;;;20.00;67.50;;;;;;5084125;28;20988;-79
2023/06/27 05:35:45;;;;;;;5.30;2.03;;;20.10;67.70;;;;;;5084453;28;20482;-80
2023/06/27 05:38:13;;;;;;;6.23;2.50;;;20.20;67.70;;;;;;5069566;28;20552;-79
2023/06/27 05:40:41;;;;;;;6.13;2.57;;;20.30;67.60;;;;;;5086922;28;20464;-78
2023/06/27 05:43:09;;;;;;;6.10;2.27;;;20.40;67.60;;;;;;5087206;28;20471;-81
2023/06/27 05:45:37;;;;;;;7.40;2.90;;;20.50;67.50;;;;;;5081083;28;20524;-80
2023/06/27 05:48:06;;;;;;;8.00;2.30;;;20.50;67.20;;;;;;5088525;28;20480;-81
2023/06/27 05:50:34;;;;;;;6.60;2.90;;;20.60;67.00;;;;;;5072093;28;20445;-81
2023/06/27 05:53:03;;;;;;;4.90;2.33;;;20.60;66.90;;;;;;5080222;28;20452;-80
2023/06/27 05:55:32;;;;;;;6.40;2.43;;;20.70;66.90;;;;;;5088634;28;20887;-80
2023/06/27 05:58:00;;;;;;;5.67;2.07;;;20.70;66.80;;;;;;5085158;28;20480;-82
2023/06/27 06:00:28;;;;;;;9.13;2.40;;;20.70;66.60;;;;;;5089352;28;20548;-79
2023/06/27 06:02:56;;;;;;;6.60;2.33;;;20.80;66.50;;;;;;5064957;28;20462;-80
2023/06/27 06:05:24;;;;;;;6.80;2.00;;;20.80;66.20;;;;;;5063573;28;20438;-81
2023/06/27 06:07:52;;;;;;;5.20;1.93;;;20.90;66.60;;;;;;5070204;28;20506;-81
2023/06/27 06:10:21;;;;;;;6.77;2.50;;;21.50;66.10;;;;;;5081536;28;20536;-81
2023/06/27 06:12:50;;;;;;;7.53;2.23;;;21.80;64.90;;;;;;5069756;28;20486;-82
2023/06/27 06:15:18;;;;;;;6.30;2.53;;;22.00;64.70;;;;;;5086402;28;20568;-82
2023/06/27 06:17:46;;;;;;;6.40;2.30;;;22.30;64.70;;;;;;5083108;28;20460;-81
2023/06/27 06:20:14;;;;;;;6.90;2.50;;;22.70;64.00;;;;;;5069727;28;20453;-81
2023/06/27 06:22:42;;;;;;;7.30;2.17;;;23.00;63.00;;;;;;5070867;28;20474;-81
2023/06/27 06:25:10;;;;;;;6.83;2.30;;;22.90;62.30;;;;;;5083525;28;20442;-82
2023/06/27 06:27:40;;;;;;;6.70;2.27;;;22.70;61.90;;;;;;5088414;28;20520;-80
2023/06/27 06:30:09;;;;;;;6.20;1.80;;;22.60;61.80;;;;;;5081927;28;20487;-82
2023/06/27 06:32:37;;;;;;;8.10;2.30;;;22.40;62.00;;;;;;5084114;28;20563;-79
2023/06/27 06:35:07;;;;;;;6.27;2.10;;;22.20;62.20;;;;;;5070184;28;20473;-80
2023/06/27 06:37:35;;;;;;;6.70;2.20;;;22.10;62.20;;;;;;5064000;28;20457;-82
2023/06/27 06:40:03;;;;;;;6.70;1.90;;;22.00;62.20;;;;;;5060826;28;20464;-82
2023/06/27 06:42:31;;;;;;;7.80;2.70;;;21.90;62.20;;;;;;5088703;28;20851;-83
2023/06/27 06:45:01;;;;;;;9.23;2.27;;;21.80;62.10;;;;;;5086546;28;20447;-80
2023/06/27 06:47:29;;;;;;;7.13;2.20;;;21.80;62.10;;;;;;5090388;28;20515;-81
2023/06/27 06:49:57;;;;;;;7.00;2.40;;;21.80;62.00;;;;;;5087818;28;20444;-82
2023/06/27 06:52:25;;;;;;;5.53;2.30;;;21.70;62.00;;;;;;5081538;28;20951;-80
2023/06/27 06:54:53;;;;;;;5.37;1.93;;;21.70;62.10;;;;;;5078518;28;20464;-81
2023/06/27 06:57:20;;;;;;;6.00;1.97;;;21.70;62.20;;;;;;5068288;28;21098;-80
2023/06/27 06:59:48;;;;;;;5.00;1.97;;;21.70;62.10;;;;;;5087356;28;20491;-81
2023/06/27 07:02:18;;;;;;;8.03;2.17;;;21.70;62.20;;;;;;5083291;28;20552;-83
2023/06/27 07:04:46;;;;;;;6.53;2.03;;;21.70;62.20;;;;;;5076918;28;20454;-81
2023/06/27 07:07:14;;;;;;;6.30;2.70;;;21.70;62.20;;;;;;5065135;28;20544;-83
2023/06/27 07:09:42;;;;;;;6.20;1.97;;;21.70;62.20;;;;;;5084826;28;20488;-80
2023/06/27 07:12:10;;;;;;;6.93;2.00;;;21.70;62.20;;;;;;5085451;28;20438;-82
2023/06/27 07:14:38;;;;;;;5.67;2.20;;;21.70;62.20;;;;;;5084563;28;20445;-81
2023/06/27 07:17:07;;;;;;;4.73;1.77;;;21.70;62.30;;;;;;5067005;28;20476;-80
2023/06/27 07:19:36;;;;;;;4.93;1.70;;;21.80;62.30;;;;;;5080614;28;20986;-82
2023/06/27 07:22:04;;;;;;;7.40;2.23;;;21.80;62.10;;;;;;5082217;28;20458;-82
2023/06/27 07:24:32;;;;;;;6.53;2.10;;;21.80;62.10;;;;;;5086334;28;20460;-81
2023/06/27 07:27:00;;;;;;;6.87;1.80;;;21.90;62.00;;;;;;5076535;28;20441;-80
2023/06/27 07:29:28;;;;;;;5.87;2.23;;;21.90;61.90;;;;;;5063419;28;20460;-81
2023/06/27 07:31:57;;;;;;;6.33;1.93;;;22.00;61.80;;;;;;5074676;28;20503;-81
2023/06/27 07:34:32;;;;;;;7.07;1.87;;;22.00;61.60;;;;;;5067186;28;20537;-80
2023/06/27 07:37:01;;;;;;;6.40;2.33;;;22.10;61.60;;;;;;5089749;28;20468;-82
2023/06/27 07:39:29;;;;;;;5.70;1.90;;;22.10;61.60;;;;;;5081305;28;20480;-80
2023/06/27 07:41:57;;;;;;;8.27;1.97;;;22.10;61.70;;;;;;5077185;28;20495;-81
2023/06/27 07:44:26;;;;;;;5.03;1.90;;;22.10;61.60;;;;;;5084315;28;20457;-82
2023/06/27 07:46:54;;;;;;;6.47;1.70;;;22.20;61.50;;;;;;5069641;28;20832;-81
2023/06/27 07:49:22;;;;;;;5.37;1.70;;;22.10;61.20;;;;;;5086423;28;20464;-82
2023/06/27 07:51:51;;;;;;;6.23;1.70;;;22.10;61.00;;;;;;5084093;28;20455;-82
2023/06/27 07:54:21;;;;;;;8.57;1.83;;;22.10;61.00;;;;;;5084504;28;20456;-82
2023/06/27 07:56:49;;;;;;;4.93;1.83;;;22.10;60.80;;;;;;5088077;28;20480;-79
2023/06/27 07:59:17;;;;;;;6.07;1.87;;;22.10;60.80;;;;;;5083921;28;20442;-81
2023/06/27 08:01:45;;;;;;;6.97;2.40;;;22.20;60.70;;;;;;5084824;28;20464;-81
2023/06/27 08:04:15;;;;;;;5.20;1.97;;;22.20;60.50;;;;;;5074665;28;20492;-83
2023/06/27 08:06:44;;;;;;;4.50;1.80;;;22.20;60.30;;;;;;5082807;28;20866;-83
2023/06/27 08:09:12;;;;;;;5.93;1.47;;;22.20;60.30;;;;;;5083570;28;20454;-81
2023/06/27 08:11:41;;;;;;;5.20;1.73;;;22.30;60.20;;;;;;5077047;28;20470;-82
2023/06/27 08:14:09;;;;;;;6.50;2.20;;;22.30;60.20;;;;;;5087030;28;20464;-81
2023/06/27 08:16:37;;;;;;;5.70;1.67;;;22.40;60.20;;;;;;5082535;28;20469;-82
2023/06/27 08:19:08;;;;;;;6.83;2.10;;;22.50;60.00;;;;;;5074140;28;20527;-80
2023/06/27 08:21:41;;;;;;;5.50;2.30;;;22.50;59.90;;;;;;5087005;28;20445;-82
2023/06/27 08:24:09;;;;;;;4.73;1.80;;;22.50;59.80;;;;;;5068021;28;20563;-80
2023/06/27 08:26:37;;;;;;;5.13;2.20;;;22.50;59.50;;;;;;5063986;28;20460;-82
2023/06/27 08:29:06;;;;;;;5.83;2.30;;;22.60;59.40;;;;;;5084009;28;20514;-80
2023/06/27 08:31:34;;;;;;;7.20;1.80;;;22.60;59.30;;;;;;5065046;28;20509;-82
2023/06/27 08:34:03;;;;;;;9.43;1.77;;;22.60;58.70;;;;;;5080568;28;20758;-83
2023/06/27 08:36:31;;;;;;;5.53;1.70;;;22.50;58.70;;;;;;5082116;28;20552;-80
2023/06/27 08:38:59;;;;;;;7.10;2.30;;;22.50;58.40;;;;;;5077300;28;20543;-80
2023/06/27 08:41:28;;;;;;;5.27;1.67;;;22.50;58.40;;;;;;5077137;28;20953;-82
2023/06/27 08:43:57;;;;;;;6.23;2.13;;;22.50;58.60;;;;;;5070408;28;20572;-81
2023/06/27 08:46:28;;;;;;;5.20;1.47;;;22.50;58.70;;;;;;5087728;28;20452;-82
2023/06/27 08:49:02;;;;;;;5.90;1.90;;;22.60;58.50;;;;;;5081237;28;20459;-81
2023/06/27 08:51:31;;;;;;;6.23;2.03;;;22.60;58.60;;;;;;5089131;28;20556;-82
2023/06/27 08:54:12;;;;;;;6.80;1.90;;;22.70;58.60;;;;;;5081922;28;20802;-80
2023/06/27 08:56:41;;;;;;;4.60;1.70;;;22.80;58.50;;;;;;5089533;28;20484;-80
2023/06/27 08:59:13;;;;;;;8.33;2.00;;;22.90;58.30;;;;;;5076245;28;20472;-81
2023/06/27 09:01:43;;;;;;;5.80;2.00;;;23.00;58.10;;;;;;5083867;28;20485;-83
2023/06/27 09:04:11;;;;;;;6.00;1.93;;;23.00;58.00;;;;;;5072821;28;20454;-81
2023/06/27 09:06:40;;;;;;;11.57;2.67;;;22.90;58.00;;;;;;5079735;28;20453;-84
2023/06/27 09:09:09;;;;;;;5.17;1.90;;;22.90;57.90;;;;;;5075495;28;20468;-79
2023/06/27 09:11:38;;;;;;;6.87;2.20;;;22.90;58.00;;;;;;5076468;28;20977;-81
2023/06/27 09:14:07;;;;;;;4.50;1.57;;;22.90;58.10;;;;;;5087562;28;20448;-80
2023/06/27 09:16:35;;;;;;;4.90;1.87;;;22.90;58.20;;;;;;5084209;28;20560;-81
2023/06/27 09:19:04;;;;;;;8.17;2.37;;;23.00;58.20;;;;;;5086656;28;20451;-83
2023/06/27 09:21:34;;;;;;;4.33;1.67;;;23.00;58.20;;;;;;5074882;28;20540;-81
2023/06/27 09:24:06;;;;;;;5.70;2.10;;;23.00;58.10;;;;;;5084923;28;20494;-80
2023/06/27 09:26:34;;;;;;;5.57;1.87;;;23.00;58.20;;;;;;5073020;28;20920;-81
2023/06/27 09:29:03;;;;;;;6.10;2.17;;;23.00;58.20;;;;;;5089470;28;20943;-78
2023/06/27 09:31:33;;;;;;;7.40;1.80;;;23.00;58.20;;;;;;5087716;28;20544;-80
2023/06/27 09:34:06;;;;;;;5.60;2.17;;;23.10;57.90;;;;;;5089280;28;20443;-80
2023/06/27 09:36:38;;;;;;;6.00;2.10;;;23.10;57.60;;;;;;5083453;28;20448;-80
2023/06/27 09:39:10;;;;;;;5.13;1.80;;;23.10;57.50;;;;;;5088421;28;20445;-78
2023/06/27 09:41:42;;;;;;;8.60;1.93;;;23.20;57.50;;;;;;5088643;28;20939;-79
2023/06/27 09:44:15;;;;;;;5.70;1.93;;;23.20;57.30;;;;;;5088612;28;20442;-79
2023/06/27 09:46:44;;;;;;;6.77;2.00;;;23.20;56.70;;;;;;5085790;28;20560;-79
2023/06/27 09:49:14;;;;;;;5.70;1.70;;;23.20;56.90;;;;;;5083602;28;20453;-80
2023/06/27 09:51:45;;;;;;;5.97;2.13;;;23.10;56.50;;;;;;5086105;28;20539;-80
2023/06/27 09:54:13;;;;;;;6.20;2.20;;;23.10;56.70;;;;;;5064583;28;21009;-81
2023/06/27 09:56:50;;;;;;;7.23;2.53;;;23.20;56.90;;;;;;5081659;28;20902;-81
2023/06/27 09:59:20;;;;;;;5.97;1.93;;;23.30;56.90;;;;;;5069446;28;20457;-79
2023/06/27 10:01:53;;;;;;;8.47;2.20;;;23.30;56.90;;;;;;5067371;28;20479;-79
2023/06/27 10:04:24;;;;;;;6.60;1.90;;;23.40;57.00;;;;;;5088340;28;20514;-79
2023/06/27 10:06:55;;;;;;;7.63;2.10;;;23.50;56.90;;;;;;5069504;28;20552;-81
2023/06/27 10:09:23;;;;;;;10.87;2.10;;;23.50;56.80;;;;;;5086806;28;20456;-80
2023/06/27 10:11:52;;;;;;;7.00;2.57;;;23.60;56.80;;;;;;5066173;28;20523;-79
2023/06/27 10:14:21;;;;;;;5.37;2.03;;;23.70;56.70;;;;;;5081183;28;20447;-77
2023/06/27 10:16:52;;;;;;;7.60;2.83;;;23.80;56.80;;;;;;5088953;28;20480;-79
2023/06/27 10:19:20;;;;;;;6.37;2.10;;;23.80;56.60;;;;;;5083781;28;21121;-79
2023/06/27 10:21:49;;;;;;;5.60;1.70;;;23.80;56.50;;;;;;5088294;28;20449;-78
2023/06/27 10:24:18;;;;;;;6.10;2.07;;;23.90;56.40;;;;;;5080438;28;20495;-80
2023/06/27 10:26:51;;;;;;;5.17;1.73;;;23.90;56.10;;;;;;5082341;28;20483;-79
2023/06/27 10:29:31;;;;;;;6.30;2.10;;;23.90;55.80;;;;;;5084133;28;20470;-79
2023/06/27 10:32:00;;;;;;;5.67;2.13;;;23.90;55.70;;;;;;5080063;28;20473;-78
2023/06/27 10:34:39;;;;;;;7.90;2.43;;;23.90;55.70;;;;;;5082676;28;20441;-79
2023/06/27 10:37:10;;;;;;;8.10;1.83;;;24.00;55.70;;;;;;5069337;28;20461;-80
2023/06/27 10:39:40;;;;;;;6.40;2.30;;;24.00;55.60;;;;;;5068989;28;20450;-79
2023/06/27 10:42:26;;;;;;;8.60;2.67;;;24.00;55.30;;;;;;5086040;28;20515;-80
2023/06/27 10:45:02;;;;;;;6.03;1.80;;;24.00;55.20;;;;;;5092199;28;20461;-79
2023/06/27 10:47:34;;;;;;;10.40;1.70;;;24.10;55.20;;;;;;5071308;28;20512;-79
2023/06/27 10:50:07;;;;;;;6.10;1.90;;;24.10;55.20;;;;;;5083411;28;20457;-80
2023/06/27 10:52:38;;;;;;;8.13;2.00;;;24.10;55.20;;;;;;5065783;28;20456;-79
2023/06/27 10:55:23;;;;;;;9.13;2.27;;;24.10;54.90;;;;;;5084249;28;20489;-80
2023/06/27 10:58:02;;;;;;;6.03;2.13;;;24.20;54.80;;;;;;5077686;28;20472;-79
2023/06/27 11:00:32;;;;;;;5.73;2.40;;;24.20;54.80;;;;;;5083894;28;20452;-80
2023/06/27 11:03:03;;;;;;;6.53;2.00;;;24.20;54.80;;;;;;5085783;28;20464;-76
2023/06/27 11:05:46;;;;;;;7.10;2.20;;;24.10;54.60;;;;;;5066480;28;20457;-79
2023/06/27 11:08:18;;;;;;;7.73;2.50;;;24.10;54.60;;;;;;5086263;28;21024;-80
2023/06/27 11:10:51;;;;;;;5.13;2.03;;;24.10;54.70;;;;;;5069409;28;20465;-79
2023/06/27 11:13:23;;;;;;;7.77;2.10;;;24.00;54.70;;;;;;5088167;28;20798;-81
2023/06/27 11:15:53;;;;;;;6.57;2.30;;;24.10;54.50;;;;;;5082957;28;20483;-80
2023/06/27 11:18:25;;;;;;;6.13;2.53;;;24.10;54.60;;;;;;5083387;28;20469;-79
2023/06/27 11:20:53;;;;;;;6.23;2.00;;;24.20;54.60;;;;;;5064674;28;20456;-80
2023/06/27 11:23:24;;;;;;;5.17;1.90;;;24.20;54.50;;;;;;5066602;28;20455;-79
2023/06/27 11:25:54;;;;;;;6.97;2.30;;;24.10;54.30;;;;;;5063171;28;20870;-80
2023/06/27 11:28:23;;;;;;;5.90;1.97;;;24.20;54.40;;;;;;5087765;28;20448;-79
2023/06/27 11:30:58;;;;;;;5.77;2.13;;;24.20;54.30;;;;;;5084349;28;20522;-79
2023/06/27 11:33:26;;;;;;;7.30;2.77;;;24.30;54.30;;;;;;5070895;28;20990;-81
2023/06/27 11:35:58;;;;;;;4.83;2.03;;;24.30;54.20;;;;;;5083648;28;20499;-80
2023/06/27 11:38:28;;;;;;;6.47;2.63;;;24.40;54.10;;;;;;5087702;28;20518;-80
2023/06/27 11:40:57;;;;;;;5.03;2.17;;;24.40;53.80;;;;;;5078158;28;20491;-80
2023/06/27 11:43:26;;;;;;;6.73;2.20;;;24.40;53.70;;;;;;5081591;28;20449;-80
2023/06/27 11:46:17;;;;;;;7.20;2.20;;;24.50;53.60;;;;;;5067608;28;20796;-80
2023/06/27 11:48:45;;;;;;;8.17;2.10;;;24.40;53.60;;;;;;5073906;28;20478;-80
2023/06/27 11:51:14;;;;;;;5.63;1.90;;;24.50;53.70;;;;;;5063835;28;20566;-79
2023/06/27 11:53:50;;;;;;;9.20;2.13;;;24.50;53.60;;;;;;5082966;28;20870;-79
2023/06/27 11:56:18;;;;;;;9.10;2.80;;;24.60;53.60;;;;;;5085467;28;20495;-81
2023/06/27 11:58:56;;;;;;;5.97;2.27;;;24.60;53.40;;;;;;5089332;28;20840;-79
2023/06/27 12:01:25;;;;;;;6.93;2.00;;;24.60;52.90;;;;;;5082803;28;20499;-81
2023/06/27 12:03:53;;;;;;;8.03;2.03;;;24.50;52.60;;;;;;5083938;28;20447;-81
2023/06/27 12:06:25;;;;;;;5.07;1.80;;;24.50;52.90;;;;;;5084342;28;20466;-79
2023/06/27 12:08:56;;;;;;;6.43;2.73;;;24.60;52.90;;;;;;5077394;28;20474;-79
2023/06/27 12:11:28;;;;;;;6.57;1.80;;;24.60;52.90;;;;;;5067266;28;20464;-78
2023/06/27 12:13:56;;;;;;;4.93;1.90;;;24.60;52.80;;;;;;5077752;28;20452;-78
2023/06/27 12:16:27;;;;;;;7.37;2.33;;;24.70;52.90;;;;;;5078395;28;20464;-80
2023/06/27 12:19:03;;;;;;;6.67;2.00;;;24.70;52.40;;;;;;5086884;28;20881;-80
2023/06/27 12:21:31;;;;;;;5.63;2.17;;;24.60;52.40;;;;;;5086385;28;20507;-80
2023/06/27 12:24:00;;;;;;;5.40;1.70;;;24.60;52.40;;;;;;5085528;28;20543;-79
2023/06/27 12:26:28;;;;;;;4.30;1.60;;;24.50;52.00;;;;;;5072489;28;20478;-80
2023/06/27 12:28:57;;;;;;;6.70;2.00;;;24.50;52.00;;;;;;5085044;28;20797;-80
2023/06/27 12:31:25;;;;;;;6.97;2.10;;;24.50;52.00;;;;;;5087013;28;20552;-78
2023/06/27 12:34:00;;;;;;;6.67;2.07;;;24.60;52.00;;;;;;5082418;28;20460;-79
2023/06/27 12:36:32;;;;;;;9.43;1.80;;;24.60;51.80;;;;;;5084392;28;20509;-79
2023/06/27 12:39:04;;;;;;;8.30;1.90;;;24.60;51.90;;;;;;5062164;28;20572;-79
2023/06/27 12:41:32;;;;;;;5.37;1.60;;;24.60;51.60;;;;;;5068305;28;20469;-79
2023/06/27 12:44:00;;;;;;;7.40;2.00;;;24.60;51.70;;;;;;5084494;28;20512;-79
2023/06/27 12:46:28;;;;;;;7.30;2.20;;;24.60;51.90;;;;;;5086123;28;20448;-79
2023/06/27 12:48:56;;;;;;;5.20;1.70;;;24.70;51.90;;;;;;5084541;28;20970;-79
2023/06/27 12:51:24;;;;;;;6.90;2.03;;;24.70;51.90;;;;;;5083237;28;20445;-80
2023/06/27 12:53:52;;;;;;;6.43;2.50;;;24.70;52.00;;;;;;5071155;28;20946;-79
2023/06/27 12:56:22;;;;;;;5.60;2.20;;;24.70;52.00;;;;;;5069939;28;20539;-79
2023/06/27 12:58:51;;;;;;;6.93;2.07;;;24.70;51.70;;;;;;5083738;28;20469;-80